Time;durP1;ratioP1;P1;durP2;ratioP2;P2;SDS_P1;SDS_P2;PMS_P1;PMS_P2;Temp;Humidity;BMP_temperature;BMP_pressure;BME280_temperature;BME280_humidity;BME280_pressure;Samples;Min_cycle;Max_cycle;Signal;HPM_P1;HPM_P2
2021/12/20 00:00:29;;;;;;;8.05;2.30;;;19.60;50.30;;;;;;5052092;28;20178;-91
2021/12/20 00:02:58;;;;;;;6.32;2.20;;;19.60;50.40;;;;;;5052226;28;20107;-89
2021/12/20 00:05:24;;;;;;;9.70;2.38;;;19.60;50.40;;;;;;5052142;28;20037;-91
2021/12/20 00:07:50;;;;;;;6.82;2.25;;;19.60;50.50;;;;;;5056094;28;20033;-87
2021/12/20 00:10:17;;;;;;;6.75;2.28;;;19.60;50.50;;;;;;5055780;28;20032;-88
2021/12/20 00:12:43;;;;;;;7.43;2.28;;;19.50;50.40;;;;;;5056116;28;20044;-86
2021/12/20 00:15:09;;;;;;;6.00;2.05;;;19.50;50.50;;;;;;5056134;28;20462;-87
2021/12/20 00:17:34;;;;;;;7.35;2.28;;;19.50;50.50;;;;;;5055805;28;20036;-89
2021/12/20 00:20:00;;;;;;;7.97;2.22;;;19.50;50.60;;;;;;5055920;28;20029;-89
2021/12/20 00:22:26;;;;;;;7.07;2.08;;;19.40;50.50;;;;;;5055636;28;20032;-88
2021/12/20 00:24:51;;;;;;;7.13;2.25;;;19.40;50.60;;;;;;5055713;28;20029;-89
2021/12/20 00:27:20;;;;;;;5.72;1.85;;;19.40;50.60;;;;;;5055580;28;20021;-88
2021/12/20 00:29:49;;;;;;;6.10;2.00;;;19.40;50.60;;;;;;5055306;28;20115;-86
2021/12/20 00:32:17;;;;;;;8.13;2.30;;;19.40;50.60;;;;;;5055391;28;20112;-88
2021/12/20 00:34:42;;;;;;;6.90;2.20;;;19.30;50.60;;;;;;5055202;28;20032;-86
2021/12/20 00:42:39;;;;;;;8.15;2.35;;;19.30;50.70;;;;;;5055441;28;20114;-90
2021/12/20 00:45:05;;;;;;;6.97;2.00;;;19.30;50.80;;;;;;5054978;28;20383;-89
2021/12/20 00:47:30;;;;;;;7.45;2.20;;;19.20;50.80;;;;;;5055160;28;20072;-87
2021/12/20 00:49:56;;;;;;;6.97;2.42;;;19.20;50.80;;;;;;5054973;28;20071;-89
2021/12/20 00:52:22;;;;;;;5.75;1.98;;;19.20;50.80;;;;;;5055167;28;20504;-90
2021/12/20 00:54:47;;;;;;;6.35;2.22;;;19.20;50.80;;;;;;5053911;28;20025;-90
2021/12/20 00:57:13;;;;;;;7.90;2.38;;;19.20;50.80;;;;;;5054931;28;20031;-91
2021/12/20 00:59:38;;;;;;;5.55;1.75;;;19.10;50.80;;;;;;5055030;28;20088;-86
2021/12/20 01:02:04;;;;;;;6.00;1.98;;;19.10;50.90;;;;;;5054817;28;20029;-87
2021/12/20 01:04:30;;;;;;;5.38;1.85;;;19.10;50.90;;;;;;5053698;28;20501;-87
2021/12/20 01:06:55;;;;;;;6.82;2.05;;;19.10;51.00;;;;;;5054978;28;20085;-88
2021/12/20 01:09:22;;;;;;;5.80;1.90;;;19.10;51.00;;;;;;5053579;28;20029;-86
2021/12/20 01:11:51;;;;;;;6.80;1.92;;;19.00;50.90;;;;;;5054687;28;20047;-90
2021/12/20 01:14:23;;;;;;;7.20;2.05;;;19.00;51.00;;;;;;5053448;28;20025;-88
2021/12/20 01:16:50;;;;;;;6.05;2.15;;;19.00;51.00;;;;;;5054298;28;20025;-89
2021/12/20 01:19:16;;;;;;;5.43;1.85;;;19.00;51.00;;;;;;5054356;28;20466;-87
2021/12/20 01:21:42;;;;;;;5.53;1.83;;;19.00;51.00;;;;;;5054384;28;20029;-90
2021/12/20 01:24:07;;;;;;;6.47;1.90;;;19.00;51.10;;;;;;5054417;28;20374;-87
2021/12/20 01:26:34;;;;;;;4.90;1.92;;;18.90;51.10;;;;;;5053081;28;20079;-86
2021/12/20 01:29:00;;;;;;;6.57;1.80;;;18.90;51.10;;;;;;5054336;28;20482;-88
2021/12/20 01:31:25;;;;;;;4.95;1.73;;;18.90;51.20;;;;;;5054233;28;20032;-87
2021/12/20 01:33:51;;;;;;;5.47;1.65;;;18.90;51.10;;;;;;5054384;28;20040;-87
2021/12/20 01:36:16;;;;;;;5.25;2.00;;;18.80;51.60;;;;;;5054067;28;20120;-87
2021/12/20 01:38:42;;;;;;;5.70;1.80;;;18.80;51.20;;;;;;5054117;28;20052;-88
2021/12/20 01:41:09;;;;;;;6.90;2.22;;;18.80;51.10;;;;;;5054054;28;20078;-88
2021/12/20 01:43:36;;;;;;;5.80;1.83;;;18.80;51.20;;;;;;5054078;28;20078;-87
2021/12/20 01:46:14;;;;;;;5.80;1.83;;;18.80;51.20;;;;;;5053725;28;20028;-88
2021/12/20 01:48:42;;;;;;;7.07;1.85;;;18.80;51.30;;;;;;5053548;28;20183;-88
2021/12/20 01:53:34;;;;;;;5.35;1.80;;;18.70;51.30;;;;;;5053892;28;20028;-86
2021/12/20 01:56:01;;;;;;;6.45;1.90;;;18.70;51.30;;;;;;5054010;28;20032;-90
2021/12/20 01:58:28;;;;;;;5.90;1.95;;;18.70;51.30;;;;;;5053788;28;20021;-88
2021/12/20 02:03:42;;;;;;;5.15;1.52;;;18.70;51.40;;;;;;5054053;28;20453;-92
2021/12/20 02:06:18;;;;;;;4.80;1.60;;;18.70;51.40;;;;;;5053494;28;20108;-86
2021/12/20 02:08:44;;;;;;;5.43;1.70;;;18.60;51.40;;;;;;5053638;28;20029;-89
2021/12/20 02:11:10;;;;;;;4.88;1.63;;;18.60;51.40;;;;;;5053301;28;20033;-87
2021/12/20 02:13:37;;;;;;;6.78;2.20;;;18.60;51.40;;;;;;5053560;28;20070;-90
2021/12/20 02:16:03;;;;;;;5.53;1.60;;;18.60;51.50;;;;;;5053218;28;20013;-91
2021/12/20 02:18:30;;;;;;;5.03;1.50;;;18.60;51.50;;;;;;5052297;28;20103;-91
2021/12/20 02:20:57;;;;;;;5.00;1.63;;;18.60;51.50;;;;;;5053129;28;20029;-86
2021/12/20 02:23:23;;;;;;;3.65;1.35;;;18.50;51.50;;;;;;5053495;28;20029;-90
2021/12/20 02:25:49;;;;;;;5.80;1.70;;;18.60;51.50;;;;;;5053287;28;20543;-90
2021/12/20 02:28:17;;;;;;;4.00;1.45;;;18.50;51.50;;;;;;5052789;28;20044;-89
2021/12/20 02:36:57;;;;;;;4.90;1.50;;;18.50;51.60;;;;;;5053198;28;20131;-89
2021/12/20 02:39:19;;;;;;;5.65;1.75;;;18.40;51.60;;;;;;5053019;28;20128;-89
2021/12/20 02:41:44;;;;;;;5.28;1.60;;;18.40;51.70;;;;;;5051783;28;20025;-88
2021/12/20 02:44:22;;;;;;;4.35;1.75;;;18.40;51.70;;;;;;5052859;28;20029;-90
2021/12/20 02:49:17;;;;;;;5.38;1.70;;;18.40;51.60;;;;;;5052939;28;20017;-85
2021/12/20 02:51:44;;;;;;;6.78;1.75;;;18.30;51.50;;;;;;5052797;28;20386;-89
2021/12/20 02:54:12;;;;;;;5.43;1.77;;;18.40;51.60;;;;;;5052565;28;20103;-87
2021/12/20 02:56:39;;;;;;;4.63;1.58;;;18.30;51.60;;;;;;5052871;28;20021;-88
2021/12/20 02:59:06;;;;;;;4.95;1.60;;;18.30;51.50;;;;;;5052657;28;20436;-88
2021/12/20 03:01:32;;;;;;;6.32;1.70;;;18.30;51.50;;;;;;5052706;28;20466;-87
2021/12/20 03:04:00;;;;;;;6.82;1.70;;;18.30;51.50;;;;;;5052365;28;20021;-88
2021/12/20 03:06:42;;;;;;;4.38;1.30;;;18.30;51.60;;;;;;5052664;28;20021;-88
2021/12/20 03:09:13;;;;;;;5.10;1.23;;;18.30;51.60;;;;;;5052507;28;20082;-87
2021/12/20 03:11:39;;;;;;;4.10;1.85;;;18.20;51.70;;;;;;5052588;28;20032;-89
2021/12/20 03:14:20;;;;;;;4.43;1.60;;;18.20;51.60;;;;;;5052322;28;20025;-89
2021/12/20 03:16:46;;;;;;;5.85;1.73;;;18.20;51.60;;;;;;5052366;28;20045;-89
2021/12/20 03:19:12;;;;;;;5.30;1.40;;;18.20;51.60;;;;;;5051224;28;20059;-86
2021/12/20 03:21:37;;;;;;;5.10;1.58;;;18.20;51.70;;;;;;5052108;28;20040;-89
2021/12/20 03:24:04;;;;;;;4.40;1.38;;;18.10;51.60;;;;;;5052217;28;20473;-87
2021/12/20 03:26:30;;;;;;;5.25;1.63;;;18.10;51.70;;;;;;5052181;28;20037;-87
2021/12/20 03:28:56;;;;;;;5.07;1.50;;;18.10;51.70;;;;;;5052258;28;20095;-87
2021/12/20 03:31:22;;;;;;;6.15;1.85;;;18.10;51.70;;;;;;5052072;28;20470;-86
2021/12/20 03:33:47;;;;;;;6.50;1.50;;;18.10;51.70;;;;;;5052032;28;20025;-89
2021/12/20 03:36:13;;;;;;;4.53;1.42;;;18.10;51.70;;;;;;5052150;28;20040;-86
2021/12/20 03:38:39;;;;;;;4.47;1.45;;;18.00;51.60;;;;;;5052165;28;20159;-89
2021/12/20 03:41:04;;;;;;;4.45;1.30;;;18.00;51.60;;;;;;5053303;28;20064;-86
2021/12/20 03:43:31;;;;;;;4.13;1.50;;;18.00;51.60;;;;;;5056366;28;20031;-89
2021/12/20 03:46:02;;;;;;;6.80;1.63;;;18.00;51.60;;;;;;5056129;28;20020;-87
2021/12/20 03:48:27;;;;;;;3.95;1.25;;;18.00;51.60;;;;;;5056178;28;20048;-89
2021/12/20 03:50:55;;;;;;;6.32;1.60;;;18.00;51.70;;;;;;5055896;28;20032;-89
2021/12/20 03:53:21;;;;;;;7.45;1.77;;;18.00;51.60;;;;;;5054973;28;20021;-89
2021/12/20 03:55:46;;;;;;;4.60;1.50;;;18.00;51.70;;;;;;5056017;28;20036;-88
2021/12/20 03:58:12;;;;;;;6.85;1.70;;;18.00;51.70;;;;;;5056068;28;20017;-87
2021/12/20 04:00:38;;;;;;;6.30;1.38;;;17.90;51.70;;;;;;5056084;28;20035;-89
2021/12/20 04:03:09;;;;;;;11.75;1.65;;;17.90;51.70;;;;;;5055748;28;20378;-87
2021/12/20 04:05:35;;;;;;;4.32;1.65;;;17.90;51.80;;;;;;5056031;28;20025;-87
2021/12/20 04:08:01;;;;;;;4.80;1.48;;;17.90;51.80;;;;;;5055544;28;20021;-88
2021/12/20 04:10:27;;;;;;;5.35;1.75;;;17.90;51.80;;;;;;5056007;28;20107;-86
2021/12/20 04:12:53;;;;;;;5.07;1.42;;;17.90;51.90;;;;;;5055704;28;20072;-87
2021/12/20 04:15:18;;;;;;;3.80;1.38;;;17.80;51.80;;;;;;5055744;28;20025;-85
2021/12/20 04:17:44;;;;;;;5.60;1.38;;;17.80;51.80;;;;;;5055417;28;20025;-86
2021/12/20 04:20:10;;;;;;;4.93;1.50;;;17.80;51.80;;;;;;5055339;28;20021;-88
2021/12/20 04:22:36;;;;;;;3.97;1.42;;;17.80;51.80;;;;;;5055568;28;20040;-90
2021/12/20 04:25:02;;;;;;;5.60;1.70;;;17.80;51.90;;;;;;5055248;28;20024;-87
2021/12/20 04:27:28;;;;;;;3.97;1.20;;;17.80;51.90;;;;;;5055527;28;20033;-86
2021/12/20 04:29:55;;;;;;;5.15;1.60;;;17.80;51.90;;;;;;5055395;28;20535;-88
2021/12/20 04:32:21;;;;;;;7.22;1.50;;;17.80;51.90;;;;;;5054304;28;20075;-89
2021/12/20 04:34:46;;;;;;;4.80;1.40;;;17.80;52.00;;;;;;5055131;28;20025;-88
2021/12/20 04:37:12;;;;;;;4.63;1.63;;;17.80;52.00;;;;;;5055154;28;20025;-90
2021/12/20 04:39:38;;;;;;;3.15;1.27;;;17.70;52.00;;;;;;5055422;28;20037;-88
2021/12/20 04:42:05;;;;;;;4.43;1.33;;;17.70;52.00;;;;;;5055068;28;20547;-89
2021/12/20 04:44:30;;;;;;;4.50;1.35;;;17.70;52.00;;;;;;5054991;28;20028;-86
2021/12/20 04:46:56;;;;;;;4.63;1.55;;;17.70;52.00;;;;;;5055276;28;20044;-86
2021/12/20 04:49:24;;;;;;;3.30;1.20;;;17.70;52.10;;;;;;5055047;28;20108;-88
2021/12/20 04:51:53;;;;;;;4.38;1.35;;;17.70;52.10;;;;;;5054418;28;20070;-88
2021/12/20 04:54:20;;;;;;;5.68;1.50;;;17.70;52.10;;;;;;5054865;28;20017;-88
2021/12/20 04:56:45;;;;;;;5.60;1.35;;;17.60;52.10;;;;;;5055007;28;20083;-90
2021/12/20 04:59:11;;;;;;;5.97;1.50;;;17.60;52.10;;;;;;5054760;28;20025;-88
2021/12/20 05:01:37;;;;;;;3.92;1.52;;;17.60;52.10;;;;;;5054698;28;20026;-87
2021/12/20 05:04:02;;;;;;;4.88;1.25;;;17.60;52.10;;;;;;5054701;28;20020;-89
2021/12/20 05:06:31;;;;;;;4.75;1.50;;;17.60;52.20;;;;;;5054473;28;20021;-86
2021/12/20 05:08:56;;;;;;;3.42;1.25;;;17.60;52.20;;;;;;5054625;28;20148;-87
2021/12/20 05:11:23;;;;;;;4.90;1.52;;;17.60;52.20;;;;;;5054348;28;20438;-86
2021/12/20 05:13:49;;;;;;;5.18;1.40;;;17.60;52.20;;;;;;5054466;28;20021;-85
2021/12/20 05:16:15;;;;;;;5.80;1.77;;;17.50;52.20;;;;;;5054532;28;20021;-85
2021/12/20 05:18:40;;;;;;;4.65;1.60;;;17.50;52.20;;;;;;5054508;28;20053;-87
2021/12/20 05:21:06;;;;;;;4.78;1.48;;;17.50;52.20;;;;;;5054350;28;20025;-88
2021/12/20 05:23:31;;;;;;;6.00;1.42;;;17.50;52.20;;;;;;5054172;28;20385;-87
2021/12/20 05:25:57;;;;;;;4.43;1.40;;;17.50;52.30;;;;;;5053360;28;20060;-88
2021/12/20 05:28:24;;;;;;;4.03;1.40;;;17.50;52.20;;;;;;5054212;28;20029;-86
2021/12/20 05:30:52;;;;;;;3.95;1.50;;;17.50;52.20;;;;;;5054123;28;20043;-86
2021/12/20 05:33:18;;;;;;;3.75;1.35;;;17.50;52.30;;;;;;5054237;28;20364;-89
2021/12/20 05:35:43;;;;;;;4.95;1.23;;;17.50;52.30;;;;;;5053914;28;20036;-86
2021/12/20 05:38:09;;;;;;;4.78;1.42;;;17.40;52.20;;;;;;5054209;28;20057;-89
2021/12/20 05:40:35;;;;;;;4.97;1.40;;;17.40;52.20;;;;;;5053876;28;20029;-90
2021/12/20 05:43:01;;;;;;;4.10;1.45;;;17.40;52.20;;;;;;5054161;28;20025;-85
2021/12/20 05:45:27;;;;;;;4.47;1.42;;;17.40;52.30;;;;;;5054071;28;20021;-87
2021/12/20 05:47:52;;;;;;;4.10;1.58;;;17.40;52.30;;;;;;5053685;28;20402;-90
2021/12/20 05:50:20;;;;;;;4.88;1.50;;;17.40;52.30;;;;;;5053951;28;20040;-87
2021/12/20 05:52:46;;;;;;;3.50;1.30;;;17.30;52.20;;;;;;5053606;28;20100;-87
2021/12/20 05:55:12;;;;;;;2.75;1.20;;;17.40;52.30;;;;;;5054008;28;20013;-89
2021/12/20 05:57:38;;;;;;;3.50;1.50;;;17.30;52.10;;;;;;5053648;28;20052;-87
2021/12/20 06:00:08;;;;;;;3.55;1.15;;;17.40;52.30;;;;;;5053589;28;20067;-85
2021/12/20 06:02:34;;;;;;;3.92;1.20;;;17.30;52.20;;;;;;5053417;28;20031;-88
2021/12/20 06:04:59;;;;;;;4.32;1.35;;;17.30;52.30;;;;;;5052834;28;20099;-88
2021/12/20 06:07:25;;;;;;;4.03;1.63;;;17.30;52.30;;;;;;5053637;28;20111;-87
2021/12/20 06:09:51;;;;;;;4.93;1.30;;;17.30;52.20;;;;;;5053538;28;20029;-86
2021/12/20 06:12:17;;;;;;;3.38;1.23;;;17.30;52.30;;;;;;5053532;28;20060;-89
2021/12/20 06:14:42;;;;;;;4.88;1.58;;;17.30;52.30;;;;;;5052158;28;20013;-86
2021/12/20 06:17:08;;;;;;;4.60;1.52;;;17.20;52.40;;;;;;5053175;28;20024;-86
2021/12/20 06:19:34;;;;;;;4.13;1.23;;;17.30;52.50;;;;;;5053358;28;20029;-86
2021/12/20 06:22:00;;;;;;;4.13;1.13;;;17.30;53.50;;;;;;5053047;28;20104;-85
2021/12/20 06:24:26;;;;;;;2.97;1.05;;;17.30;52.50;;;;;;5053317;28;20033;-88
2021/12/20 06:26:52;;;;;;;3.78;1.20;;;17.40;52.60;;;;;;5052998;28;20032;-87
2021/12/20 06:29:18;;;;;;;5.43;1.52;;;17.50;52.60;;;;;;5053240;28;20029;-88
2021/12/20 06:31:44;;;;;;;3.80;1.25;;;17.60;52.50;;;;;;5053022;28;20021;-89
2021/12/20 06:34:10;;;;;;;4.18;1.38;;;17.70;52.30;;;;;;5052921;28;20025;-87
2021/12/20 06:36:36;;;;;;;4.68;1.40;;;17.80;52.20;;;;;;5051964;28;20013;-86
2021/12/20 06:39:04;;;;;;;5.07;1.20;;;18.00;52.20;;;;;;5052745;28;20071;-89
2021/12/20 06:41:30;;;;;;;3.33;1.27;;;18.10;52.00;;;;;;5052863;28;20373;-89
2021/12/20 06:43:56;;;;;;;2.35;1.10;;;18.20;51.80;;;;;;5051573;28;20020;-87
2021/12/20 06:46:23;;;;;;;4.10;1.10;;;18.40;51.50;;;;;;5052659;28;20027;-87
2021/12/20 06:48:48;;;;;;;3.40;1.40;;;18.60;51.30;;;;;;5052338;28;20072;-88
2021/12/20 06:51:14;;;;;;;3.50;1.38;;;18.70;51.00;;;;;;5052361;28;20053;-89
2021/12/20 06:53:39;;;;;;;4.00;1.30;;;18.90;50.80;;;;;;5052633;28;20065;-87
2021/12/20 06:56:06;;;;;;;3.17;1.45;;;19.00;50.40;;;;;;5052605;28;20132;-90
2021/12/20 06:58:32;;;;;;;3.75;1.08;;;19.10;50.10;;;;;;5051350;28;20107;-88
2021/12/20 07:00:57;;;;;;;4.63;1.30;;;19.30;49.90;;;;;;5052437;28;20032;-86
2021/12/20 07:03:23;;;;;;;5.70;1.80;;;19.40;49.70;;;;;;5052428;28;20055;-86
2021/12/20 07:05:49;;;;;;;4.57;1.40;;;19.50;49.30;;;;;;5052450;28;20024;-90
2021/12/20 07:08:15;;;;;;;5.65;1.60;;;19.60;49.00;;;;;;5052330;28;20029;-87
2021/12/20 07:10:41;;;;;;;3.40;1.13;;;19.70;48.90;;;;;;5052328;28;20037;-86
2021/12/20 07:13:09;;;;;;;4.32;1.63;;;19.80;48.70;;;;;;5052400;28;20025;-91
2021/12/20 07:15:34;;;;;;;5.45;1.63;;;19.90;48.50;;;;;;5050935;28;20094;-88
2021/12/20 07:18:00;;;;;;;10.40;1.60;;;20.00;48.40;;;;;;5051246;28;20025;-90
2021/12/20 07:20:26;;;;;;;11.30;1.95;;;20.00;48.20;;;;;;5051990;28;20021;-89
2021/12/20 07:22:52;;;;;;;7.32;1.65;;;20.00;48.20;;;;;;5052274;28;20036;-89
2021/12/20 07:25:19;;;;;;;14.25;1.90;;;20.10;48.20;;;;;;5051925;28;20028;-88
2021/12/20 07:27:47;;;;;;;10.77;2.05;;;20.10;48.10;;;;;;5051949;28;20494;-86
2021/12/20 07:30:13;;;;;;;10.90;2.13;;;20.20;47.90;;;;;;5050684;28;20470;-85
2021/12/20 07:32:39;;;;;;;16.20;2.05;;;20.20;47.90;;;;;;5052024;28;20102;-87
2021/12/20 07:35:05;;;;;;;12.02;1.95;;;20.20;47.80;;;;;;5051909;28;20072;-87
2021/12/20 07:37:30;;;;;;;14.18;2.00;;;20.30;47.80;;;;;;5051946;28;20112;-88
2021/12/20 07:39:56;;;;;;;12.82;1.88;;;20.30;47.70;;;;;;5052091;28;20064;-86
2021/12/20 07:42:21;;;;;;;11.38;2.15;;;20.30;47.70;;;;;;5052011;28;20021;-88
2021/12/20 07:44:47;;;;;;;9.52;1.60;;;20.30;47.60;;;;;;5051961;28;20029;-89
2021/12/20 07:47:13;;;;;;;14.35;1.58;;;20.30;47.60;;;;;;5051607;28;20056;-87
2021/12/20 07:49:38;;;;;;;11.45;1.90;;;20.30;47.60;;;;;;5051729;28;20068;-90
2021/12/20 07:52:04;;;;;;;8.23;1.60;;;20.30;47.60;;;;;;5052033;28;20091;-86
2021/12/20 07:54:30;;;;;;;9.98;1.90;;;20.30;47.60;;;;;;5051635;28;20025;-85
2021/12/20 07:56:56;;;;;;;9.85;2.08;;;20.30;47.70;;;;;;5051707;28;20104;-88
2021/12/20 07:59:22;;;;;;;7.50;2.00;;;20.30;47.60;;;;;;5051682;28;20032;-86
2021/12/20 08:01:48;;;;;;;7.93;2.00;;;20.30;47.50;;;;;;5051638;28;20158;-86
2021/12/20 08:04:15;;;;;;;10.35;2.05;;;20.30;47.50;;;;;;5051711;28;20071;-87
2021/12/20 08:06:43;;;;;;;8.85;1.88;;;20.30;47.50;;;;;;5051718;28;20017;-86
2021/12/20 08:09:10;;;;;;;8.55;1.80;;;20.30;47.50;;;;;;5050512;28;20440;-88
2021/12/20 08:11:36;;;;;;;11.48;2.22;;;20.30;47.40;;;;;;5051661;28;20017;-89
2021/12/20 08:14:03;;;;;;;9.95;2.08;;;20.30;47.50;;;;;;5051477;28;20036;-91
2021/12/20 08:16:28;;;;;;;7.13;1.52;;;20.30;47.50;;;;;;5051585;28;20061;-86
2021/12/20 08:18:54;;;;;;;10.25;1.70;;;20.20;47.50;;;;;;5051468;28;20080;-90
2021/12/20 08:21:21;;;;;;;6.28;1.55;;;20.20;47.50;;;;;;5051827;28;20021;-87
2021/12/20 08:23:46;;;;;;;8.75;1.50;;;20.20;47.60;;;;;;5051495;28;20049;-87
2021/12/20 08:26:12;;;;;;;12.45;2.22;;;20.20;47.70;;;;;;5050452;28;20164;-90
2021/12/20 08:28:38;;;;;;;10.88;2.35;;;20.20;47.80;;;;;;5055202;28;20028;-85
2021/12/20 08:31:05;;;;;;;10.65;1.70;;;20.10;47.90;;;;;;5054887;28;20412;-88
2021/12/20 08:33:32;;;;;;;11.90;2.13;;;20.20;48.00;;;;;;5055382;28;20392;-86
2021/12/20 08:36:02;;;;;;;13.90;2.00;;;20.20;48.10;;;;;;5053623;28;20079;-88
2021/12/20 08:38:28;;;;;;;13.18;1.90;;;20.20;48.20;;;;;;5053890;28;20037;-85
2021/12/20 08:40:54;;;;;;;13.25;1.83;;;20.20;48.10;;;;;;5053079;28;20039;-84
2021/12/20 08:43:21;;;;;;;11.20;1.75;;;20.20;48.10;;;;;;5055005;28;20049;-90
2021/12/20 08:45:47;;;;;;;12.40;2.08;;;20.20;48.10;;;;;;5041946;28;20021;-87
2021/12/20 08:48:13;;;;;;;10.63;1.65;;;20.20;48.00;;;;;;5037184;28;20049;-86
2021/12/20 08:50:39;;;;;;;11.98;1.60;;;20.20;48.10;;;;;;5055001;28;20041;-89
2021/12/20 08:53:06;;;;;;;9.23;1.95;;;20.20;48.00;;;;;;5047535;28;20030;-88
2021/12/20 08:55:33;;;;;;;5.40;1.90;;;20.20;48.00;;;;;;5035319;28;20116;-87
2021/12/20 08:57:59;;;;;;;14.05;1.95;;;20.20;48.00;;;;;;5034952;28;20459;-86
2021/12/20 09:00:29;;;;;;;11.80;2.00;;;20.20;48.00;;;;;;5035163;28;20467;-92
2021/12/20 09:02:55;;;;;;;8.43;1.55;;;20.20;48.00;;;;;;5035374;28;20073;-85
2021/12/20 09:05:23;;;;;;;10.70;1.73;;;20.20;48.00;;;;;;5035159;28;20056;-91
2021/12/20 09:07:49;;;;;;;6.97;1.70;;;20.20;48.10;;;;;;5035332;28;20025;-86
2021/12/20 09:10:16;;;;;;;8.15;1.52;;;20.20;49.10;;;;;;5035145;28;20391;-88
2021/12/20 09:12:43;;;;;;;6.72;1.55;;;20.20;48.10;;;;;;5050679;28;20033;-87
2021/12/20 09:15:16;;;;;;;7.35;1.63;;;20.20;48.30;;;;;;5033613;28;20121;-89
2021/12/20 09:17:46;;;;;;;5.97;1.60;;;20.20;48.10;;;;;;5034943;28;20029;-86
2021/12/20 09:20:13;;;;;;;7.38;1.45;;;20.20;48.10;;;;;;5066560;28;20033;-86
2021/12/20 09:22:49;;;;;;;6.70;1.55;;;20.20;48.10;;;;;;5034555;28;20367;-87
2021/12/20 09:25:36;;;;;;;6.55;1.33;;;20.30;48.30;;;;;;5049603;28;20025;-90
2021/12/20 09:28:04;;;;;;;8.00;1.42;;;20.30;48.20;;;;;;5053592;28;20445;-89
2021/12/20 09:30:31;;;;;;;5.97;1.50;;;20.30;48.20;;;;;;5054359;28;20032;-91
2021/12/20 09:32:57;;;;;;;5.85;1.60;;;20.30;48.20;;;;;;5054520;28;20025;-91
2021/12/20 09:35:23;;;;;;;4.20;1.30;;;20.30;48.30;;;;;;5052962;28;20048;-87
2021/12/20 09:37:51;;;;;;;6.78;1.85;;;20.30;48.20;;;;;;5053347;28;20347;-86
2021/12/20 09:40:30;;;;;;;5.97;1.50;;;20.30;48.20;;;;;;5053824;28;20035;-90
2021/12/20 09:42:56;;;;;;;6.13;1.40;;;20.30;48.30;;;;;;5052529;28;20582;-90
2021/12/20 09:45:23;;;;;;;6.47;1.50;;;20.30;48.20;;;;;;5052472;28;20040;-86
2021/12/20 09:47:50;;;;;;;5.93;1.40;;;20.30;48.20;;;;;;5052683;28;20060;-89
2021/12/20 09:50:17;;;;;;;6.47;1.60;;;20.40;48.30;;;;;;5052498;28;20504;-89
2021/12/20 09:52:44;;;;;;;5.18;1.38;;;20.30;48.20;;;;;;5054058;28;20592;-87
2021/12/20 09:55:15;;;;;;;6.30;1.40;;;20.40;48.30;;;;;;5052630;28;20083;-88
2021/12/20 09:57:43;;;;;;;5.28;1.42;;;20.40;48.30;;;;;;5052600;28;20075;-90
2021/12/20 10:00:11;;;;;;;6.03;1.52;;;20.40;48.30;;;;;;5068970;28;20036;-89
2021/12/20 10:02:37;;;;;;;5.18;1.50;;;20.40;48.30;;;;;;5053586;28;20043;-86
2021/12/20 10:05:03;;;;;;;4.22;1.20;;;20.30;48.30;;;;;;5053325;28;20021;-90
2021/12/20 10:07:29;;;;;;;5.20;1.52;;;20.30;48.30;;;;;;5053297;28;20021;-87
2021/12/20 10:09:56;;;;;;;4.53;1.30;;;20.30;48.40;;;;;;5053396;28;20028;-91
2021/12/20 10:12:24;;;;;;;5.50;1.58;;;20.40;48.40;;;;;;5053327;28;20097;-86
2021/12/20 10:15:00;;;;;;;4.60;1.25;;;20.40;48.40;;;;;;5052239;28;20028;-89
2021/12/20 10:17:58;;;;;;;5.78;1.30;;;20.40;48.50;;;;;;5053220;28;20032;-89
2021/12/20 10:20:26;;;;;;;4.57;1.10;;;20.40;48.40;;;;;;5052906;28;20434;-86
2021/12/20 10:22:53;;;;;;;6.03;1.30;;;20.40;48.60;;;;;;5052090;28;20025;-87
2021/12/20 10:25:28;;;;;;;4.20;1.00;;;20.30;48.50;;;;;;5053000;28;20025;-90
2021/12/20 10:28:02;;;;;;;5.40;1.38;;;20.40;48.50;;;;;;5053008;28;20024;-88
2021/12/20 10:30:33;;;;;;;4.30;0.80;;;20.40;48.60;;;;;;5053214;28;20033;-88
2021/12/20 10:32:59;;;;;;;3.88;1.10;;;20.40;48.60;;;;;;5035318;28;20063;-90
2021/12/20 10:35:25;;;;;;;6.13;1.35;;;20.40;48.60;;;;;;5053023;28;20496;-86
2021/12/20 10:37:55;;;;;;;5.85;1.73;;;20.40;48.60;;;;;;5051518;28;20120;-92
2021/12/20 10:40:21;;;;;;;5.30;1.40;;;20.40;48.60;;;;;;5052884;28;20107;-86
2021/12/20 10:42:46;;;;;;;4.22;1.10;;;20.40;48.60;;;;;;5052798;28;20024;-88
2021/12/20 10:45:14;;;;;;;7.20;1.30;;;20.40;48.60;;;;;;5053547;28;20060;-86
2021/12/20 10:47:42;;;;;;;5.22;1.00;;;20.40;48.70;;;;;;5053630;28;20088;-91
2021/12/20 10:50:25;;;;;;;8.07;1.45;;;20.30;48.50;;;;;;5068188;28;20128;-92
2021/12/20 10:52:51;;;;;;;;;;;20.40;48.60;;;;;;5053745;28;20474;-86
2021/12/20 10:55:38;;;;;;;6.20;1.42;;;20.30;48.70;;;;;;5052945;28;20023;-90
2021/12/20 10:58:33;;;;;;;5.57;1.30;;;20.30;48.70;;;;;;5052069;28;20111;-91
2021/12/20 11:01:14;;;;;;;5.43;1.33;;;20.30;48.70;;;;;;5052992;28;20033;-90
2021/12/20 11:03:42;;;;;;;6.28;1.60;;;20.30;48.70;;;;;;5051981;28;20036;-89
2021/12/20 11:11:28;;;;;;;6.97;1.75;;;20.30;48.90;;;;;;5052774;28;20046;-88
2021/12/20 11:13:54;;;;;;;8.13;1.48;;;20.30;48.80;;;;;;5051777;28;20021;-91
2021/12/20 11:16:37;;;;;;;9.02;1.50;;;20.30;48.90;;;;;;5051550;28;20118;-91
2021/12/20 11:19:10;;;;;;;8.98;1.30;;;20.30;48.80;;;;;;5052857;28;20062;-89
2021/12/20 11:21:36;;;;;;;;;;;20.30;48.90;;;;;;5068435;28;20032;-90
2021/12/20 11:24:03;;;;;;;6.07;1.20;;;20.30;48.90;;;;;;5051349;28;19935;-88
2021/12/20 11:26:29;;;;;;;5.63;1.20;;;20.30;49.00;;;;;;5052570;28;20040;-90
2021/12/20 11:28:56;;;;;;;6.93;1.35;;;20.30;49.00;;;;;;5052397;28;20373;-88
2021/12/20 11:31:22;;;;;;;6.30;1.38;;;20.30;49.00;;;;;;5051119;28;20028;-87
2021/12/20 11:33:48;;;;;;;4.22;1.63;;;20.30;49.10;;;;;;5051351;28;20126;-87
2021/12/20 11:36:14;;;;;;;8.05;1.48;;;20.30;48.90;;;;;;5052336;28;20021;-89
2021/12/20 11:38:40;;;;;;;4.07;1.23;;;20.30;49.00;;;;;;5051439;28;20382;-89
2021/12/20 11:41:07;;;;;;;8.20;1.52;;;20.30;49.00;;;;;;5052955;28;20033;-90
2021/12/20 11:43:33;;;;;;;6.68;1.38;;;20.30;49.10;;;;;;5051347;28;20474;-89
2021/12/20 11:45:59;;;;;;;6.63;1.40;;;20.30;49.00;;;;;;5052705;28;20040;-87
2021/12/20 11:48:28;;;;;;;6.25;1.30;;;20.30;49.00;;;;;;5052331;28;20045;-89
2021/12/20 11:50:59;;;;;;;5.43;1.30;;;20.20;49.00;;;;;;5051255;28;20116;-91
2021/12/20 11:53:33;;;;;;;6.82;1.58;;;20.30;49.10;;;;;;5052167;28;20033;-90
2021/12/20 11:55:59;;;;;;;6.15;1.40;;;20.20;49.00;;;;;;5052531;28;20036;-91
2021/12/20 11:58:30;;;;;;;6.15;1.60;;;20.20;49.00;;;;;;5049526;28;20017;-89
2021/12/20 12:01:00;;;;;;;6.97;1.27;;;20.30;49.10;;;;;;5051793;28;20551;-89
2021/12/20 12:03:29;;;;;;;5.15;1.38;;;20.20;49.00;;;;;;5055464;28;20025;-87
2021/12/20 12:06:00;;;;;;;3.63;1.20;;;20.20;49.10;;;;;;5056047;28;20120;-89
2021/12/20 12:08:37;;;;;;;6.90;1.30;;;20.20;49.00;;;;;;5055489;28;20021;-91
2021/12/20 12:11:09;;;;;;;4.15;1.20;;;20.30;49.10;;;;;;5054270;28;20025;-88
2021/12/20 12:13:48;;;;;;;7.65;1.35;;;20.30;49.10;;;;;;5055679;28;20024;-88
2021/12/20 12:16:27;;;;;;;7.07;1.60;;;20.20;49.10;;;;;;5055922;28;20074;-87
2021/12/20 12:18:54;;;;;;;8.23;1.60;;;20.20;49.10;;;;;;5054391;28;20421;-86
2021/12/20 12:21:32;;;;;;;5.38;1.48;;;20.20;49.10;;;;;;5055661;28;20033;-87
2021/12/20 12:23:59;;;;;;;6.00;1.42;;;20.20;49.10;;;;;;5055499;28;20052;-89
2021/12/20 12:26:37;;;;;;;5.75;1.48;;;20.20;49.10;;;;;;5049118;28;20029;-87
2021/12/20 12:29:05;;;;;;;5.53;1.40;;;20.20;49.10;;;;;;5055682;28;20067;-89
2021/12/20 12:31:56;;;;;;;6.68;1.10;;;20.20;49.10;;;;;;5034470;28;20495;-85
2021/12/20 12:34:51;;;;;;;4.20;1.50;;;20.20;49.10;;;;;;5043526;28;20056;-89
2021/12/20 12:37:27;;;;;;;4.30;1.30;;;20.20;49.10;;;;;;5085842;28;20394;-87
2021/12/20 12:40:12;;;;;;;5.82;1.33;;;20.20;49.10;;;;;;5054572;28;20115;-89
2021/12/20 12:42:52;;;;;;;3.08;1.20;;;20.30;49.20;;;;;;5055405;28;20033;-88
2021/12/20 12:45:46;;;;;;;6.32;1.60;;;20.30;49.20;;;;;;5054799;28;20120;-87
2021/12/20 12:48:43;;;;;;;7.90;1.60;;;20.30;49.10;;;;;;5055425;28;20057;-87
2021/12/20 12:51:18;;;;;;;8.70;1.27;;;20.30;49.10;;;;;;5055451;28;20053;-91
2021/12/20 12:53:46;;;;;;;4.63;1.20;;;20.30;49.10;;;;;;5055695;28;20029;-92
2021/12/20 12:56:41;;;;;;;6.88;1.35;;;20.30;49.10;;;;;;5054372;28;20090;-90
2021/12/20 12:59:13;;;;;;;4.10;1.10;;;20.30;49.00;;;;;;5047761;28;20046;-86
2021/12/20 13:01:41;;;;;;;6.80;1.30;;;20.30;49.10;;;;;;5057557;28;20025;-90
2021/12/20 13:04:07;;;;;;;6.28;1.48;;;20.30;49.00;;;;;;5055403;28;20078;-89
2021/12/20 13:06:33;;;;;;;4.57;1.42;;;20.30;49.00;;;;;;5053521;28;20382;-89
2021/12/20 13:09:00;;;;;;;5.85;1.50;;;20.30;49.00;;;;;;5036774;28;20037;-88
2021/12/20 13:11:26;;;;;;;5.28;1.70;;;20.30;48.90;;;;;;5054725;28;20021;-88
2021/12/20 13:14:19;;;;;;;5.95;1.63;;;20.40;48.90;;;;;;5052633;28;20031;-87